Time;durP1;ratioP1;P1;durP2;ratioP2;P2;SDS_P1;SDS_P2;PMS_P1;PMS_P2;Temp;Humidity;BMP_temperature;BMP_pressure;BME280_temperature;BME280_humidity;BME280_pressure;Samples;Min_cycle;Max_cycle;Signal;HPM_P1;HPM_P2
2023/04/29 00:01:13;;;;;;;1.83;1.67;;;14.80;99.90;;;;;;4132692;28;20130;-53
2023/04/29 00:03:18;;;;;;;2.90;1.90;;;14.80;99.90;;;;;;4132290;28;20097;-53
2023/04/29 00:05:21;;;;;;;4.05;1.95;;;14.80;99.90;;;;;;4131720;28;20486;-54
2023/04/29 00:07:23;;;;;;;2.05;1.85;;;14.80;99.90;;;;;;4132589;28;20074;-54
2023/04/29 00:09:25;;;;;;;2.17;1.73;;;14.70;99.90;;;;;;4132129;28;20057;-53
2023/04/29 00:11:27;;;;;;;4.65;2.30;;;14.80;99.90;;;;;;4132404;28;20563;-53
2023/04/29 00:13:33;;;;;;;4.50;2.00;;;14.80;99.90;;;;;;4131329;28;20054;-53
2023/04/29 00:15:36;;;;;;;6.10;1.83;;;14.80;99.90;;;;;;4131283;28;20407;-53
2023/04/29 00:17:39;;;;;;;3.47;1.80;;;14.80;99.90;;;;;;4132234;28;20054;-54
2023/04/29 00:19:43;;;;;;;1.90;1.77;;;14.80;99.90;;;;;;4132282;28;20476;-54
2023/04/29 00:21:45;;;;;;;2.85;1.88;;;14.70;99.90;;;;;;4114582;28;20063;-53
2023/04/29 00:23:47;;;;;;;4.38;1.90;;;14.70;99.90;;;;;;4132076;28;20050;-53
2023/04/29 00:25:50;;;;;;;2.97;1.92;;;14.70;99.90;;;;;;4130971;28;20418;-54
2023/04/29 00:27:53;;;;;;;;;;;14.80;99.90;;;;;;4132128;28;20082;-53
2023/04/29 00:29:56;;;;;;;3.20;1.83;;;14.80;99.90;;;;;;4131972;28;20394;-53
2023/04/29 00:31:58;;;;;;;2.40;1.98;;;14.70;99.90;;;;;;4132244;28;20077;-53
2023/04/29 00:34:00;;;;;;;4.97;2.10;;;14.70;99.90;;;;;;4132114;28;20098;-54
2023/04/29 00:36:04;;;;;;;4.97;2.08;;;14.60;99.90;;;;;;4130881;28;20042;-54
2023/04/29 00:38:06;;;;;;;2.47;1.93;;;14.60;99.90;;;;;;4114629;28;20266;-61
2023/04/29 00:40:09;;;;;;;1.88;1.70;;;14.60;99.90;;;;;;4131776;28;20128;-55
2023/04/29 00:42:11;;;;;;;3.47;2.00;;;14.60;99.90;;;;;;4131462;28;20046;-54
2023/04/29 00:44:13;;;;;;;4.43;1.60;;;14.60;99.90;;;;;;4132044;28;20471;-54
2023/04/29 00:46:16;;;;;;;2.08;1.63;;;14.70;99.90;;;;;;4131037;28;20097;-55
2023/04/29 00:48:18;;;;;;;2.90;2.03;;;14.60;99.90;;;;;;4132438;28;20143;-54
2023/04/29 00:50:21;;;;;;;4.53;2.10;;;14.60;99.90;;;;;;4131989;28;20492;-54
2023/04/29 00:52:26;;;;;;;2.53;1.83;;;14.60;99.90;;;;;;4131595;28;20109;-57
2023/04/29 00:54:28;;;;;;;4.00;2.10;;;14.60;99.90;;;;;;4131501;28;20050;-54
2023/04/29 00:56:32;;;;;;;3.70;2.00;;;14.60;99.90;;;;;;4130935;28;20129;-53
2023/04/29 00:58:35;;;;;;;3.30;2.25;;;14.50;99.90;;;;;;4131656;28;20054;-54
2023/04/29 01:00:37;;;;;;;6.35;3.15;;;14.50;99.90;;;;;;4131794;28;20475;-53
2023/04/29 01:02:39;;;;;;;3.25;2.03;;;14.50;99.90;;;;;;4131545;28;20428;-53
2023/04/29 01:04:43;;;;;;;4.70;1.95;;;14.50;99.90;;;;;;4130869;28;20476;-53
2023/04/29 01:06:53;;;;;;;6.63;2.20;;;14.50;99.90;;;;;;4131484;28;20101;-53
2023/04/29 01:09:13;;;;;;;3.35;1.83;;;14.60;99.90;;;;;;4131469;28;20125;-54
2023/04/29 01:11:17;;;;;;;3.20;2.17;;;14.50;99.90;;;;;;4131206;28;20050;-54
2023/04/29 01:13:29;;;;;;;4.00;2.67;;;14.50;99.90;;;;;;4131528;28;20050;-53
2023/04/29 01:15:38;;;;;;;4.38;2.22;;;14.50;99.90;;;;;;4130627;28;20046;-53
2023/04/29 01:17:47;;;;;;;2.85;1.90;;;14.50;99.90;;;;;;4131554;28;20133;-56
2023/04/29 01:19:54;;;;;;;3.05;1.98;;;14.40;99.90;;;;;;4131582;28;20452;-53
2023/04/29 01:21:56;;;;;;;5.10;2.47;;;14.30;99.90;;;;;;4131330;28;20064;-53
2023/04/29 01:23:59;;;;;;;3.35;2.08;;;14.30;99.90;;;;;;4131322;28;20046;-53
2023/04/29 01:26:01;;;;;;;2.83;2.30;;;14.40;99.90;;;;;;4119679;28;20404;-59
2023/04/29 01:28:12;;;;;;;4.10;2.42;;;14.30;99.90;;;;;;4115150;28;20130;-53
2023/04/29 01:30:26;;;;;;;3.15;2.28;;;14.40;99.90;;;;;;4098175;28;20055;-57
2023/04/29 01:32:40;;;;;;;4.72;2.30;;;14.30;99.90;;;;;;4115507;28;20046;-54
2023/04/29 01:34:48;;;;;;;3.20;1.90;;;14.40;99.90;;;;;;4114913;28;20126;-54
2023/04/29 01:36:59;;;;;;;5.18;2.42;;;14.40;99.90;;;;;;4098117;29;20429;-54
2023/04/29 01:39:19;;;;;;;5.63;2.72;;;14.40;99.90;;;;;;4115337;28;20097;-53
2023/04/29 01:41:30;;;;;;;6.30;2.13;;;14.40;99.90;;;;;;4114980;28;20478;-54
2023/04/29 01:43:36;;;;;;;3.78;2.58;;;14.30;99.90;;;;;;4115173;28;20050;-54
2023/04/29 01:45:42;;;;;;;4.45;2.38;;;14.30;99.90;;;;;;4114388;28;20051;-54
2023/04/29 01:47:46;;;;;;;4.07;2.38;;;14.30;99.90;;;;;;4115197;28;20047;-54
2023/04/29 01:49:48;;;;;;;3.08;2.72;;;14.20;99.90;;;;;;4115314;28;20076;-53
2023/04/29 01:51:52;;;;;;;2.90;2.33;;;14.30;99.90;;;;;;4115200;28;20054;-55
2023/04/29 01:53:55;;;;;;;4.18;2.83;;;14.30;99.90;;;;;;4114979;28;20054;-54
2023/04/29 01:55:59;;;;;;;4.88;2.40;;;14.30;99.90;;;;;;4114258;28;20145;-53
2023/04/29 01:58:01;;;;;;;3.63;2.63;;;14.30;99.90;;;;;;4115294;28;20102;-53
2023/04/29 02:00:04;;;;;;;4.22;2.80;;;14.30;99.90;;;;;;4115178;28;20457;-53
2023/04/29 02:02:09;;;;;;;4.68;2.88;;;14.20;99.90;;;;;;4115264;28;20157;-54
2023/04/29 02:04:11;;;;;;;6.93;3.03;;;14.20;99.90;;;;;;4098132;29;20047;-53
2023/04/29 02:06:13;;;;;;;3.88;2.50;;;14.20;99.90;;;;;;4115876;28;20126;-62
2023/04/29 02:08:15;;;;;;;3.95;2.53;;;14.10;99.90;;;;;;4115563;28;20159;-53
2023/04/29 02:10:17;;;;;;;8.35;3.38;;;14.10;99.90;;;;;;4114760;28;20519;-53
2023/04/29 02:12:21;;;;;;;4.63;2.85;;;14.00;99.90;;;;;;4115107;28;20488;-53
2023/04/29 02:14:26;;;;;;;5.57;3.10;;;14.00;99.90;;;;;;4114871;28;20460;-54
2023/04/29 02:16:28;;;;;;;3.38;2.60;;;14.10;99.90;;;;;;4114099;28;20463;-53
2023/04/29 02:18:30;;;;;;;4.47;2.90;;;14.00;99.90;;;;;;4114976;28;20203;-52
2023/04/29 02:20:32;;;;;;;6.07;3.05;;;14.10;99.90;;;;;;4097511;29;20055;-52
2023/04/29 02:22:34;;;;;;;6.03;3.58;;;14.10;99.90;;;;;;4115095;28;20529;-54
2023/04/29 02:24:36;;;;;;;7.22;3.00;;;14.10;99.90;;;;;;4116014;28;20073;-55
2023/04/29 02:26:38;;;;;;;9.05;3.08;;;14.00;99.90;;;;;;4129750;28;20174;-54
2023/04/29 02:28:43;;;;;;;4.32;3.10;;;14.00;99.90;;;;;;4131791;28;20050;-56
2023/04/29 02:30:45;;;;;;;4.13;2.70;;;13.90;99.90;;;;;;4132505;28;20101;-64
2023/04/29 02:32:47;;;;;;;7.22;3.72;;;13.90;99.90;;;;;;4132426;28;20121;-57
2023/04/29 02:34:49;;;;;;;7.63;3.08;;;13.90;99.90;;;;;;4132103;28;20068;-54
2023/04/29 02:36:51;;;;;;;3.10;2.40;;;13.90;99.90;;;;;;4132994;28;20133;-57
2023/04/29 02:38:54;;;;;;;6.55;3.30;;;13.90;99.90;;;;;;4134861;28;20356;-54
2023/04/29 02:40:57;;;;;;;4.95;3.05;;;13.90;99.90;;;;;;4135929;28;20104;-55
2023/04/29 02:43:00;;;;;;;6.07;2.88;;;13.90;99.90;;;;;;4134640;28;20051;-53
2023/04/29 02:45:04;;;;;;;4.63;3.25;;;13.80;99.90;;;;;;4132826;28;20046;-54
2023/04/29 02:47:06;;;;;;;5.43;3.30;;;13.90;99.90;;;;;;4133305;28;20074;-54
2023/04/29 02:49:08;;;;;;;4.80;3.10;;;13.90;99.90;;;;;;4133599;28;20475;-53
2023/04/29 02:51:10;;;;;;;4.90;3.17;;;13.80;99.90;;;;;;4133618;28;20057;-54
2023/04/29 02:53:12;;;;;;;6.68;3.03;;;13.70;99.90;;;;;;4133519;28;20053;-55
2023/04/29 02:55:15;;;;;;;7.18;3.28;;;13.70;99.90;;;;;;4132758;28;20054;-54
2023/04/29 02:57:17;;;;;;;7.15;2.92;;;13.70;99.90;;;;;;4133447;28;20365;-54
2023/04/29 02:59:19;;;;;;;6.20;3.10;;;13.60;99.90;;;;;;4133363;28;20034;-53
2023/04/29 03:01:23;;;;;;;6.60;3.38;;;13.50;99.90;;;;;;4133543;28;20047;-53
2023/04/29 03:03:25;;;;;;;5.38;3.63;;;13.60;99.90;;;;;;4133391;28;20141;-53
2023/04/29 03:05:27;;;;;;;8.70;3.40;;;13.50;99.90;;;;;;4132687;28;20050;-53
2023/04/29 03:07:30;;;;;;;4.63;3.78;;;13.50;99.90;;;;;;4132737;28;20050;-53
2023/04/29 03:09:32;;;;;;;7.53;3.95;;;13.60;99.90;;;;;;4133243;28;20120;-53
2023/04/29 03:11:34;;;;;;;4.95;2.90;;;13.50;99.90;;;;;;4133196;28;20046;-53
2023/04/29 03:13:36;;;;;;;5.75;3.15;;;13.50;99.90;;;;;;4133440;28;20050;-54
2023/04/29 03:15:38;;;;;;;5.35;3.42;;;13.50;99.90;;;;;;4114924;28;20110;-53
2023/04/29 03:17:45;;;;;;;5.53;3.65;;;13.40;99.90;;;;;;4115983;28;20047;-54
2023/04/29 03:19:47;;;;;;;4.78;3.33;;;13.40;99.90;;;;;;4133113;28;20124;-53
2023/04/29 03:21:49;;;;;;;5.88;3.50;;;13.40;99.90;;;;;;4132561;28;20070;-53
2023/04/29 03:23:54;;;;;;;;;;;13.40;99.90;;;;;;4133456;28;20046;-54
2023/04/29 03:25:56;;;;;;;4.45;3.33;;;13.40;99.90;;;;;;4132210;28;19948;-53
2023/04/29 03:27:58;;;;;;;4.50;3.53;;;13.30;99.90;;;;;;4132993;28;20046;-54
2023/04/29 03:30:00;;;;;;;4.75;3.70;;;13.40;99.90;;;;;;4132746;28;20050;-53
2023/04/29 03:32:03;;;;;;;5.75;3.22;;;13.40;99.90;;;;;;4132908;28;20153;-55
2023/04/29 03:34:06;;;;;;;3.80;3.40;;;13.40;99.90;;;;;;4132977;28;20384;-52
2023/04/29 03:36:09;;;;;;;6.20;3.70;;;13.40;99.90;;;;;;4131701;28;20060;-53
2023/04/29 03:38:11;;;;;;;4.78;4.00;;;13.50;99.90;;;;;;4132738;28;20133;-52
2023/04/29 03:40:13;;;;;;;5.65;3.50;;;13.50;99.90;;;;;;4115598;28;20203;-52
2023/04/29 03:42:15;;;;;;;4.70;3.83;;;13.60;99.90;;;;;;4132888;28;20125;-52
2023/04/29 03:44:17;;;;;;;4.70;3.50;;;13.70;99.90;;;;;;4132934;28;20038;-59
2023/04/29 03:46:19;;;;;;;8.07;3.42;;;13.70;99.90;;;;;;4132890;28;20447;-54
2023/04/29 03:48:22;;;;;;;4.82;3.75;;;13.80;99.90;;;;;;4132223;28;20446;-52
2023/04/29 03:50:26;;;;;;;5.00;4.03;;;13.80;99.90;;;;;;4132320;28;20156;-51
2023/04/29 03:52:28;;;;;;;6.40;4.50;;;13.90;99.90;;;;;;4132699;28;20046;-52
2023/04/29 03:54:30;;;;;;;9.13;5.22;;;13.70;99.90;;;;;;4132597;28;20074;-51
2023/04/29 03:56:32;;;;;;;6.35;4.38;;;13.70;99.90;;;;;;4114355;28;20051;-52
2023/04/29 03:58:34;;;;;;;6.20;5.13;;;13.70;99.90;;;;;;4115649;28;20054;-53
2023/04/29 04:00:36;;;;;;;9.95;6.65;;;13.70;99.90;;;;;;4132729;28;20104;-52
2023/04/29 04:02:38;;;;;;;11.02;7.90;;;13.60;99.90;;;;;;4132558;28;20053;-57
2023/04/29 04:04:41;;;;;;;9.68;8.13;;;13.40;99.90;;;;;;4132918;28;20546;-55
2023/04/29 04:06:50;;;;;;;9.73;7.88;;;13.20;99.90;;;;;;4132644;28;20054;-55
2023/04/29 04:08:52;;;;;;;8.32;7.45;;;13.20;99.90;;;;;;4133767;28;20050;-63
2023/04/29 04:10:54;;;;;;;9.80;8.77;;;13.10;99.90;;;;;;4133251;28;20054;-58
2023/04/29 04:12:56;;;;;;;10.93;9.65;;;13.10;99.90;;;;;;4133113;28;20122;-66
2023/04/29 04:14:58;;;;;;;11.05;9.45;;;13.10;99.90;;;;;;4132957;28;20073;-54
2023/04/29 04:17:00;;;;;;;10.90;9.57;;;13.10;99.90;;;;;;4131414;28;20070;-53
2023/04/29 04:19:03;;;;;;;11.90;10.73;;;13.10;99.90;;;;;;4132045;28;20057;-54
2023/04/29 04:21:05;;;;;;;11.35;10.15;;;13.00;99.90;;;;;;4132127;28;20058;-55
2023/04/29 04:23:09;;;;;;;9.95;8.68;;;13.00;99.90;;;;;;4132116;28;20492;-54
2023/04/29 04:25:11;;;;;;;12.88;11.07;;;13.00;99.90;;;;;;4131559;28;20057;-54
2023/04/29 04:27:13;;;;;;;12.38;9.98;;;13.00;99.90;;;;;;4131843;28;20072;-54
2023/04/29 04:29:15;;;;;;;11.65;10.45;;;13.10;99.90;;;;;;4131959;28;20050;-54
2023/04/29 04:31:17;;;;;;;11.93;10.05;;;13.10;99.90;;;;;;4131901;28;20046;-53
2023/04/29 04:33:20;;;;;;;11.40;9.65;;;13.10;99.90;;;;;;4132155;28;20050;-54
2023/04/29 04:35:22;;;;;;;12.60;8.90;;;13.10;99.90;;;;;;4130612;28;20050;-54
2023/04/29 04:37:24;;;;;;;11.75;10.38;;;13.10;99.90;;;;;;4131869;28;20069;-54
2023/04/29 04:39:27;;;;;;;11.52;9.20;;;13.20;99.90;;;;;;4131764;28;20046;-54
2023/04/29 04:41:30;;;;;;;13.38;10.00;;;13.20;99.90;;;;;;4131821;28;20125;-53
2023/04/29 04:43:32;;;;;;;12.50;10.65;;;13.20;99.90;;;;;;4131808;28;20121;-54
2023/04/29 04:45:35;;;;;;;13.45;12.05;;;13.20;99.90;;;;;;4130982;28;20046;-53
2023/04/29 04:47:40;;;;;;;14.90;13.35;;;13.10;99.90;;;;;;4131851;28;20506;-52
2023/04/29 04:49:42;;;;;;;13.75;12.10;;;13.00;99.90;;;;;;4131488;28;20050;-52
2023/04/29 04:51:44;;;;;;;15.40;12.68;;;13.00;99.90;;;;;;4131830;28;20093;-51
2023/04/29 04:53:47;;;;;;;13.63;11.77;;;13.10;99.90;;;;;;4131902;28;20475;-52
2023/04/29 04:55:50;;;;;;;17.50;12.27;;;13.00;99.90;;;;;;4130941;28;20125;-56
2023/04/29 04:57:54;;;;;;;13.75;11.60;;;13.00;99.90;;;;;;4131649;28;20042;-52
2023/04/29 04:59:56;;;;;;;13.63;11.93;;;13.00;99.90;;;;;;4131646;28;20061;-52
2023/04/29 05:01:59;;;;;;;13.27;11.10;;;13.10;99.90;;;;;;4131684;28;20043;-51
2023/04/29 05:04:02;;;;;;;13.95;12.05;;;13.10;99.90;;;;;;4131472;28;20137;-53
2023/04/29 05:06:04;;;;;;;11.23;8.35;;;13.10;99.90;;;;;;4130649;28;20047;-52
2023/04/29 05:08:06;;;;;;;11.60;9.95;;;13.00;99.90;;;;;;4131393;28;20070;-51
2023/04/29 05:10:10;;;;;;;14.52;11.82;;;13.10;99.90;;;;;;4131450;28;20125;-58
2023/04/29 05:12:13;;;;;;;13.00;10.40;;;13.10;99.90;;;;;;4131631;28;20115;-51
2023/04/29 05:14:16;;;;;;;18.42;12.80;;;13.10;99.90;;;;;;4114489;28;20478;-57
2023/04/29 05:16:18;;;;;;;16.83;12.95;;;13.00;99.90;;;;;;4131351;28;20105;-51
2023/04/29 05:18:20;;;;;;;13.32;11.20;;;13.00;99.90;;;;;;4132000;28;20046;-53
2023/04/29 05:20:22;;;;;;;12.02;10.57;;;13.00;99.90;;;;;;4132121;28;20082;-56
2023/04/29 05:22:25;;;;;;;19.75;13.68;;;13.00;99.90;;;;;;4132223;28;20062;-52
2023/04/29 05:24:29;;;;;;;16.85;11.93;;;13.00;99.90;;;;;;4131646;28;20388;-52
2023/04/29 05:26:31;;;;;;;14.75;11.82;;;13.10;99.90;;;;;;4130247;28;20062;-52
2023/04/29 05:28:34;;;;;;;20.20;14.48;;;13.10;99.90;;;;;;4131278;28;20050;-51
2023/04/29 05:30:36;;;;;;;16.80;12.70;;;13.10;99.90;;;;;;4131515;28;20894;-51
2023/04/29 05:32:39;;;;;;;20.95;12.38;;;13.10;99.90;;;;;;4131011;28;20046;-56
2023/04/29 05:34:43;;;;;;;16.48;11.82;;;13.10;99.90;;;;;;4131362;28;20046;-51
2023/04/29 05:36:45;;;;;;;11.02;9.32;;;13.10;99.90;;;;;;4130389;28;20407;-51
2023/04/29 05:38:47;;;;;;;16.13;10.98;;;13.20;99.90;;;;;;4131501;28;20129;-52
2023/04/29 05:40:51;;;;;;;15.02;10.65;;;13.10;99.90;;;;;;4131113;28;20050;-51
2023/04/29 05:42:54;;;;;;;16.33;11.77;;;13.20;99.90;;;;;;4131089;28;20074;-53
2023/04/29 05:44:57;;;;;;;19.25;14.70;;;13.20;99.90;;;;;;4131562;28;20106;-50
2023/04/29 05:46:59;;;;;;;19.83;14.98;;;13.20;99.90;;;;;;4129930;28;20104;-51
2023/04/29 05:49:01;;;;;;;17.83;14.23;;;13.10;99.90;;;;;;4131142;28;20054;-52
2023/04/29 05:51:03;;;;;;;19.27;13.40;;;13.20;99.90;;;;;;4130239;28;20074;-56
2023/04/29 05:53:05;;;;;;;17.25;13.55;;;13.10;99.90;;;;;;4131218;28;20050;-52
2023/04/29 05:55:08;;;;;;;17.13;12.70;;;13.10;99.90;;;;;;4131947;28;20046;-61
2023/04/29 05:57:10;;;;;;;18.50;12.80;;;13.10;99.90;;;;;;4130950;28;20404;-51
2023/04/29 05:59:12;;;;;;;17.50;12.75;;;13.00;99.90;;;;;;4131295;28;20059;-52
2023/04/29 06:01:16;;;;;;;16.58;13.60;;;13.00;99.90;;;;;;4131029;28;20050;-52
2023/04/29 06:03:18;;;;;;;24.20;14.63;;;13.10;99.90;;;;;;4131362;28;20050;-52
2023/04/29 06:05:23;;;;;;;17.70;13.52;;;13.20;99.90;;;;;;4113950;28;20050;-53
2023/04/29 06:07:26;;;;;;;25.63;15.77;;;13.20;99.90;;;;;;4130303;28;20042;-52
2023/04/29 06:09:28;;;;;;;21.67;14.32;;;13.20;99.90;;;;;;4113784;28;20050;-53
2023/04/29 06:11:30;;;;;;;20.70;14.10;;;13.20;99.90;;;;;;4131845;28;20399;-55
2023/04/29 06:13:33;;;;;;;15.68;12.07;;;13.10;99.90;;;;;;4134564;28;20054;-51
2023/04/29 06:15:35;;;;;;;20.90;13.30;;;13.10;99.90;;;;;;4133496;28;20050;-51
2023/04/29 06:17:39;;;;;;;22.77;14.55;;;13.20;99.90;;;;;;4133596;28;20046;-51
2023/04/29 06:19:41;;;;;;;19.87;13.10;;;13.30;99.90;;;;;;4134010;28;20124;-51
2023/04/29 06:21:43;;;;;;;25.00;15.15;;;13.20;99.90;;;;;;4134032;28;20054;-51
2023/04/29 06:23:45;;;;;;;19.50;14.30;;;13.30;99.90;;;;;;4133891;28;20064;-54
2023/04/29 06:25:47;;;;;;;24.35;16.38;;;13.20;99.90;;;;;;4132945;28;20054;-51
2023/04/29 06:27:50;;;;;;;30.67;17.15;;;13.30;99.90;;;;;;4134050;28;20389;-51
2023/04/29 06:29:52;;;;;;;22.55;16.10;;;13.30;99.90;;;;;;4133965;28;20487;-51
2023/04/29 06:31:55;;;;;;;24.77;16.95;;;13.30;99.90;;;;;;4117420;28;20054;-50
2023/04/29 06:33:59;;;;;;;20.30;13.98;;;13.30;99.90;;;;;;4134731;28;20093;-64
2023/04/29 06:36:01;;;;;;;28.73;17.20;;;13.30;99.90;;;;;;4133732;28;20057;-54
2023/04/29 06:38:03;;;;;;;27.20;17.67;;;13.20;99.90;;;;;;4134047;28;20050;-52
2023/04/29 06:40:06;;;;;;;25.63;15.60;;;13.30;99.90;;;;;;4134009;28;20047;-52
2023/04/29 06:42:09;;;;;;;22.60;15.27;;;13.30;99.90;;;;;;4133744;28;20136;-52
2023/04/29 06:44:11;;;;;;;28.25;16.05;;;13.30;99.90;;;;;;4133193;28;20181;-52
2023/04/29 06:46:13;;;;;;;28.40;17.63;;;13.30;99.90;;;;;;4132610;28;20050;-51
2023/04/29 06:48:15;;;;;;;30.25;18.20;;;13.30;99.90;;;;;;4133682;28;20061;-51
2023/04/29 06:50:18;;;;;;;23.52;17.38;;;13.30;99.90;;;;;;4133803;28;20054;-52
2023/04/29 06:52:20;;;;;;;39.03;19.38;;;13.40;99.90;;;;;;4133473;28;20065;-52
2023/04/29 06:54:23;;;;;;;32.97;19.13;;;13.40;99.90;;;;;;4116319;28;20090;-53
2023/04/29 06:56:25;;;;;;;32.42;18.80;;;13.40;99.90;;;;;;4132483;28;20054;-52
2023/04/29 06:58:27;;;;;;;33.63;20.60;;;13.50;99.90;;;;;;4133005;28;20484;-51
2023/04/29 07:00:29;;;;;;;37.38;22.58;;;13.40;99.90;;;;;;4133622;28;20506;-52
2023/04/29 07:02:31;;;;;;;29.95;19.27;;;13.50;99.90;;;;;;4133482;28;20133;-52
2023/04/29 07:04:36;;;;;;;27.23;17.60;;;13.40;99.90;;;;;;4133313;28;20046;-53
2023/04/29 07:06:40;;;;;;;42.50;21.23;;;13.50;99.90;;;;;;4132532;28;20046;-52
2023/04/29 07:08:42;;;;;;;25.55;19.40;;;13.50;99.90;;;;;;4133441;28;20092;-51
2023/04/29 07:10:52;;;;;;;31.67;18.92;;;13.50;99.90;;;;;;4133213;28;20048;-54
2023/04/29 07:12:54;;;;;;;26.77;19.30;;;13.50;99.90;;;;;;4133138;28;20121;-53
2023/04/29 07:14:57;;;;;;;26.63;19.65;;;13.60;99.90;;;;;;4133520;28;20050;-53
2023/04/29 07:16:59;;;;;;;32.30;20.90;;;13.50;99.90;;;;;;4132261;28;20043;-52
2023/04/29 07:19:01;;;;;;;26.33;19.00;;;13.60;99.90;;;;;;4133275;28;20054;-53
2023/04/29 07:21:03;;;;;;;34.38;20.17;;;13.60;99.90;;;;;;4133206;28;20078;-52
2023/04/29 07:23:07;;;;;;;37.42;22.23;;;13.50;99.90;;;;;;4133002;28;20056;-52
2023/04/29 07:25:09;;;;;;;30.10;20.48;;;13.50;99.90;;;;;;4133023;28;20104;-52
2023/04/29 07:27:12;;;;;;;28.65;19.23;;;13.50;99.90;;;;;;4132216;28;20046;-52
2023/04/29 07:29:16;;;;;;;32.35;22.40;;;13.50;99.90;;;;;;4132841;28;20066;-52
2023/04/29 07:31:18;;;;;;;34.55;21.10;;;13.50;99.90;;;;;;4132839;28;20046;-52
2023/04/29 07:33:20;;;;;;;29.15;21.05;;;13.50;99.90;;;;;;4133215;28;20121;-52
2023/04/29 07:35:23;;;;;;;29.30;20.77;;;13.60;99.90;;;;;;4133072;28;20051;-52
2023/04/29 07:37:25;;;;;;;33.28;20.00;;;13.70;99.90;;;;;;4132106;28;20125;-54
2023/04/29 07:39:29;;;;;;;31.92;21.02;;;13.70;99.90;;;;;;4133079;28;20125;-54
2023/04/29 07:41:31;;;;;;;39.50;23.83;;;13.80;99.90;;;;;;4133524;28;20105;-55
2023/04/29 07:43:33;;;;;;;32.83;21.05;;;13.80;99.90;;;;;;4132656;28;20054;-55
2023/04/29 07:45:35;;;;;;;29.05;20.90;;;13.80;99.90;;;;;;4132898;28;20050;-55
2023/04/29 07:47:38;;;;;;;29.65;19.95;;;13.70;99.90;;;;;;4131965;28;20452;-54
2023/04/29 07:49:40;;;;;;;26.58;19.05;;;13.70;99.90;;;;;;4132619;28;20050;-54
2023/04/29 07:51:42;;;;;;;25.52;18.08;;;13.80;99.90;;;;;;4132466;28;20057;-54
2023/04/29 07:53:45;;;;;;;34.47;21.60;;;13.80;99.90;;;;;;4133152;28;20051;-57
2023/04/29 07:55:48;;;;;;;64.25;21.42;;;13.80;99.90;;;;;;4133280;28;20551;-57
2023/04/29 07:57:52;;;;;;;26.65;19.92;;;13.80;99.90;;;;;;4131831;28;20435;-55
2023/04/29 07:59:54;;;;;;;25.92;20.10;;;13.80;99.90;;;;;;4132409;28;20482;-55
2023/04/29 08:01:56;;;;;;;28.52;20.05;;;13.70;99.90;;;;;;4132565;28;20084;-55
2023/04/29 08:03:58;;;;;;;29.05;20.88;;;13.80;99.90;;;;;;4132597;28;20403;-60
2023/04/29 08:06:02;;;;;;;29.05;20.25;;;13.80;99.90;;;;;;4131907;28;20043;-55
2023/04/29 08:08:04;;;;;;;28.48;19.65;;;13.80;99.90;;;;;;4132267;28;20491;-55
2023/04/29 08:10:08;;;;;;;30.58;21.15;;;13.80;99.90;;;;;;4132567;28;20046;-52
2023/04/29 08:12:11;;;;;;;38.65;24.33;;;13.90;99.90;;;;;;4131923;28;20046;-52
2023/04/29 08:14:13;;;;;;;31.25;23.15;;;14.00;99.90;;;;;;4132564;28;20126;-52
2023/04/29 08:16:15;;;;;;;33.38;22.98;;;13.90;99.90;;;;;;4131677;28;20528;-52
2023/04/29 08:18:17;;;;;;;32.50;22.42;;;13.90;99.90;;;;;;4132588;28;20050;-53
2023/04/29 08:20:19;;;;;;;40.20;25.13;;;14.00;99.90;;;;;;4131342;28;20058;-52
2023/04/29 08:22:21;;;;;;;34.92;24.30;;;13.90;99.90;;;;;;4132111;28;20504;-53
2023/04/29 08:24:23;;;;;;;35.17;24.35;;;13.90;99.90;;;;;;4131933;28;20500;-59
2023/04/29 08:26:26;;;;;;;36.15;23.33;;;14.00;99.90;;;;;;4127541;28;20116;-55
2023/04/29 08:28:30;;;;;;;24.15;16.85;;;14.00;99.90;;;;;;4113921;28;20543;-54
2023/04/29 08:30:32;;;;;;;30.35;20.08;;;14.50;99.90;;;;;;4098683;29;20051;-55
2023/04/29 08:32:34;;;;;;;26.95;19.17;;;14.70;99.90;;;;;;4115929;28;20146;-55
2023/04/29 08:34:36;;;;;;;23.98;17.80;;;15.00;99.90;;;;;;4115411;28;20047;-55
2023/04/29 08:36:38;;;;;;;24.00;17.10;;;15.00;99.90;;;;;;4115066;28;20059;-54
2023/04/29 08:38:41;;;;;;;24.75;18.40;;;15.10;99.90;;;;;;4115958;28;20133;-54
2023/04/29 08:40:45;;;;;;;23.38;17.27;;;15.20;99.90;;;;;;4115166;28;20121;-53
2023/04/29 08:42:48;;;;;;;;;;;15.20;99.90;;;;;;4099036;28;20051;-55
2023/04/29 08:44:52;;;;;;;35.20;24.83;;;15.30;99.90;;;;;;4115689;28;20327;-55
2023/04/29 08:46:58;;;;;;;38.13;25.02;;;15.20;99.90;;;;;;4115088;28;20070;-54
2023/04/29 08:49:02;;;;;;;42.92;25.63;;;15.10;99.90;;;;;;4115808;28;20047;-55
2023/04/29 08:51:04;;;;;;;36.78;24.70;;;15.10;99.90;;;;;;4115694;28;20057;-55
2023/04/29 08:53:07;;;;;;;32.97;22.95;;;15.10;99.90;;;;;;4096085;28;20059;-53
2023/04/29 08:55:09;;;;;;;32.60;24.38;;;15.00;99.90;;;;;;4114504;28;20051;-53
2023/04/29 08:57:12;;;;;;;39.42;26.00;;;15.00;99.90;;;;;;4096758;29;20055;-55
2023/04/29 08:59:15;;;;;;;36.17;25.10;;;15.10;99.90;;;;;;4098096;29;20366;-56
2023/04/29 09:01:19;;;;;;;36.50;25.35;;;14.90;99.90;;;;;;4115816;28;20512;-54
2023/04/29 09:03:26;;;;;;;32.50;24.08;;;15.00;99.90;;;;;;4115098;28;20069;-54
2023/04/29 09:05:29;;;;;;;36.55;24.95;;;15.10;99.90;;;;;;4115095;28;20050;-55
2023/04/29 09:07:34;;;;;;;39.58;25.63;;;15.20;99.90;;;;;;4112437;28;20039;-55
2023/04/29 09:09:38;;;;;;;37.67;24.98;;;15.10;99.90;;;;;;4113043;28;20051;-55
2023/04/29 09:11:40;;;;;;;46.38;25.77;;;15.20;99.90;;;;;;4112636;28;20053;-55
2023/04/29 09:13:42;;;;;;;37.33;24.45;;;15.20;99.90;;;;;;4109794;28;20051;-54
2023/04/29 09:15:45;;;;;;;43.45;27.20;;;15.10;99.90;;;;;;4098518;29;20051;-54
2023/04/29 09:17:51;;;;;;;;;;;15.10;99.90;;;;;;4098015;29;20416;-54
2023/04/29 09:19:55;;;;;;;43.60;29.75;;;15.00;99.90;;;;;;4098722;29;20418;-53
2023/04/29 09:22:00;;;;;;;40.55;28.67;;;15.00;99.90;;;;;;4098740;29;20066;-53
2023/04/29 09:24:03;;;;;;;46.58;28.73;;;15.00;99.90;;;;;;4113815;28;20107;-53
2023/04/29 09:26:05;;;;;;;43.50;29.05;;;15.00;99.90;;;;;;4114955;28;20058;-54
2023/04/29 09:28:14;;;;;;;44.13;28.38;;;15.00;99.90;;;;;;4113561;28;20054;-53
2023/04/29 09:30:16;;;;;;;37.70;27.17;;;15.20;99.90;;;;;;4114492;28;20050;-54
2023/04/29 09:32:22;;;;;;;49.38;28.10;;;15.30;99.90;;;;;;4114691;28;20043;-54
2023/04/29 09:34:34;;;;;;;37.80;26.13;;;15.30;99.90;;;;;;4114424;28;20054;-54
2023/04/29 09:36:44;;;;;;;37.38;27.42;;;15.40;99.90;;;;;;4113322;28;20146;-54
2023/04/29 09:38:54;;;;;;;35.30;27.52;;;15.50;99.90;;;;;;4113959;28;20051;-54
2023/04/29 09:40:56;;;;;;;37.90;27.35;;;15.50;99.90;;;;;;4114485;28;20134;-55
2023/04/29 09:43:10;;;;;;;37.47;27.45;;;15.50;99.90;;;;;;4114039;28;20050;-54
2023/04/29 09:45:12;;;;;;;39.13;28.38;;;15.40;99.90;;;;;;4114358;28;20051;-53
2023/04/29 09:47:14;;;;;;;39.22;28.73;;;15.40;99.90;;;;;;4113040;28;20110;-54
2023/04/29 09:49:24;;;;;;;37.60;28.55;;;15.40;99.90;;;;;;4117467;28;20463;-55
2023/04/29 09:51:27;;;;;;;46.47;29.98;;;15.30;99.90;;;;;;4117582;28;20440;-54
2023/04/29 09:53:36;;;;;;;43.63;28.80;;;15.30;99.90;;;;;;4117288;28;20138;-53
2023/04/29 09:55:57;;;;;;;46.83;29.80;;;15.30;99.90;;;;;;4099614;29;20051;-54
2023/04/29 09:57:59;;;;;;;39.50;27.73;;;15.30;99.90;;;;;;4115398;28;20047;-55
2023/04/29 10:00:02;;;;;;;41.78;27.48;;;15.40;99.90;;;;;;4110033;28;20089;-54
2023/04/29 10:02:09;;;;;;;36.25;27.33;;;15.50;99.90;;;;;;4115430;28;20059;-54
2023/04/29 10:04:12;;;;;;;38.95;27.90;;;15.70;99.90;;;;;;4113880;28;20042;-54
2023/04/29 10:06:16;;;;;;;38.13;26.70;;;15.60;99.90;;;;;;4115140;28;20058;-55
2023/04/29 10:08:20;;;;;;;36.00;26.55;;;15.70;99.90;;;;;;4114012;28;20046;-54
2023/04/29 10:10:23;;;;;;;34.20;24.83;;;15.80;99.90;;;;;;4116403;28;20458;-54
2023/04/29 10:12:25;;;;;;;34.67;24.27;;;15.90;99.90;;;;;;4115881;28;20137;-53
2023/04/29 10:14:29;;;;;;;35.42;25.55;;;15.90;99.60;;;;;;4117495;28;20054;-54
2023/04/29 10:16:38;;;;;;;30.40;23.83;;;16.10;99.80;;;;;;4113972;28;20508;-54
2023/04/29 10:18:43;;;;;;;29.75;23.30;;;16.20;99.70;;;;;;4129689;28;20100;-54
2023/04/29 10:20:47;;;;;;;28.25;22.25;;;16.10;99.30;;;;;;4115975;28;20114;-53
2023/04/29 10:22:50;;;;;;;30.40;21.58;;;16.20;98.50;;;;;;4115151;28;20105;-54
2023/04/29 10:24:56;;;;;;;25.98;19.45;;;16.20;98.50;;;;;;4115891;28;20392;-54
2023/04/29 10:26:58;;;;;;;30.80;22.05;;;16.10;98.40;;;;;;4113933;28;20050;-54
2023/04/29 10:29:02;;;;;;;28.13;20.40;;;16.20;98.30;;;;;;4115924;28;20109;-54
2023/04/29 10:31:06;;;;;;;28.58;20.25;;;16.20;98.30;;;;;;4116324;28;20488;-54
2023/04/29 10:33:09;;;;;;;;;;;16.30;98.20;;;;;;4115338;28;20050;-54